sensor_id;sensor_type;location;lat;lon;timestamp;temperature;humidity
18998;DHT22;9632;51.018;4.284;2022-08-02T00:01:42;22.00;99.90
18998;DHT22;9632;51.018;4.284;2022-08-02T00:04:09;21.90;99.90
18998;DHT22;9632;51.018;4.284;2022-08-02T00:06:34;21.90;99.90
18998;DHT22;9632;51.018;4.284;2022-08-02T00:09:01;21.90;99.90
18998;DHT22;9632;51.018;4.284;2022-08-02T00:11:26;21.80;99.90
18998;DHT22;9632;51.018;4.284;2022-08-02T00:13:52;21.80;99.90
18998;DHT22;9632;51.018;4.284;2022-08-02T00:16:17;21.80;99.90
18998;DHT22;9632;51.018;4.284;2022-08-02T00:18:43;21.80;99.90
18998;DHT22;9632;51.018;4.284;2022-08-02T00:21:09;21.80;99.90
18998;DHT22;9632;51.018;4.284;2022-08-02T00:23:34;21.70;99.90
18998;DHT22;9632;51.018;4.284;2022-08-02T00:26:00;21.70;99.90
18998;DHT22;9632;51.018;4.284;2022-08-02T00:28:26;21.70;99.90
18998;DHT22;9632;51.018;4.284;2022-08-02T00:30:52;21.70;99.90
18998;DHT22;9632;51.018;4.284;2022-08-02T00:33:17;21.70;99.90
18998;DHT22;9632;51.018;4.284;2022-08-02T00:35:43;21.70;99.90
18998;DHT22;9632;51.018;4.284;2022-08-02T00:38:12;21.70;99.90
18998;DHT22;9632;51.018;4.284;2022-08-02T00:40:38;21.70;99.90
18998;DHT22;9632;51.018;4.284;2022-08-02T00:43:06;21.60;99.90
18998;DHT22;9632;51.018;4.284;2022-08-02T00:45:37;21.70;99.90
18998;DHT22;9632;51.018;4.284;2022-08-02T00:48:04;21.60;99.90
18998;DHT22;9632;51.018;4.284;2022-08-02T00:50:30;21.60;99.90
18998;DHT22;9632;51.018;4.284;2022-08-02T00:52:56;21.60;99.90
18998;DHT22;9632;51.018;4.284;2022-08-02T00:55:22;21.60;99.90
18998;DHT22;9632;51.018;4.284;2022-08-02T00:57:48;21.60;99.90
18998;DHT22;9632;51.018;4.284;2022-08-02T01:00:14;21.50;99.90
18998;DHT22;9632;51.018;4.284;2022-08-02T01:02:40;21.50;99.90
18998;DHT22;9632;51.018;4.284;2022-08-02T01:05:06;21.50;99.90
18998;DHT22;9632;51.018;4.284;2022-08-02T01:07:32;21.50;99.90
18998;DHT22;9632;51.018;4.284;2022-08-02T01:09:58;21.50;99.90
18998;DHT22;9632;51.018;4.284;2022-08-02T01:12:25;21.40;99.90
18998;DHT22;9632;51.018;4.284;2022-08-02T01:14:55;21.50;99.90
18998;DHT22;9632;51.018;4.284;2022-08-02T01:20:40;21.40;99.90
18998;DHT22;9632;51.018;4.284;2022-08-02T01:23:23;21.40;99.90
18998;DHT22;9632;51.018;4.284;2022-08-02T01:29:49;21.30;99.90
18998;DHT22;9632;51.018;4.284;2022-08-02T01:34:39;21.30;99.90
18998;DHT22;9632;51.018;4.284;2022-08-02T01:39:33;21.20;99.90
18998;DHT22;9632;51.018;4.284;2022-08-02T01:42:00;21.20;99.90
18998;DHT22;9632;51.018;4.284;2022-08-02T01:44:29;21.20;99.90
18998;DHT22;9632;51.018;4.284;2022-08-02T01:46:59;21.10;99.90
18998;DHT22;9632;51.018;4.284;2022-08-02T01:49:28;21.10;99.90
18998;DHT22;9632;51.018;4.284;2022-08-02T01:51:57;21.10;99.90
18998;DHT22;9632;51.018;4.284;2022-08-02T01:54:44;21.00;99.90
18998;DHT22;9632;51.018;4.284;2022-08-02T01:57:12;21.00;99.90
18998;DHT22;9632;51.018;4.284;2022-08-02T01:59:41;21.00;99.90
18998;DHT22;9632;51.018;4.284;2022-08-02T02:02:08;20.90;99.90
18998;DHT22;9632;51.018;4.284;2022-08-02T02:04:36;20.80;99.90
18998;DHT22;9632;51.018;4.284;2022-08-02T02:07:03;20.90;99.90
18998;DHT22;9632;51.018;4.284;2022-08-02T02:09:30;20.90;99.90
18998;DHT22;9632;51.018;4.284;2022-08-02T02:11:59;20.90;99.90
18998;DHT22;9632;51.018;4.284;2022-08-02T02:14:26;20.90;99.90
18998;DHT22;9632;51.018;4.284;2022-08-02T02:16:54;20.80;99.90
18998;DHT22;9632;51.018;4.284;2022-08-02T02:19:21;20.80;99.90
18998;DHT22;9632;51.018;4.284;2022-08-02T02:21:48;20.70;99.90
18998;DHT22;9632;51.018;4.284;2022-08-02T02:24:13;20.70;99.90
18998;DHT22;9632;51.018;4.284;2022-08-02T02:26:41;20.70;99.90
18998;DHT22;9632;51.018;4.284;2022-08-02T02:29:08;20.70;99.90
18998;DHT22;9632;51.018;4.284;2022-08-02T02:31:40;20.70;99.90
18998;DHT22;9632;51.018;4.284;2022-08-02T02:34:18;20.70;99.90
18998;DHT22;9632;51.018;4.284;2022-08-02T02:36:49;20.70;99.90
18998;DHT22;9632;51.018;4.284;2022-08-02T02:39:19;20.60;99.90
18998;DHT22;9632;51.018;4.284;2022-08-02T02:41:46;20.60;99.90
18998;DHT22;9632;51.018;4.284;2022-08-02T02:44:17;20.50;99.90
18998;DHT22;9632;51.018;4.284;2022-08-02T02:46:44;20.40;99.90
18998;DHT22;9632;51.018;4.284;2022-08-02T02:49:11;20.40;99.90
18998;DHT22;9632;51.018;4.284;2022-08-02T02:51:40;20.40;99.90
18998;DHT22;9632;51.018;4.284;2022-08-02T02:54:08;20.40;99.90
18998;DHT22;9632;51.018;4.284;2022-08-02T02:56:37;20.40;99.90
18998;DHT22;9632;51.018;4.284;2022-08-02T02:59:03;20.30;99.90
18998;DHT22;9632;51.018;4.284;2022-08-02T03:01:29;20.30;99.90
18998;DHT22;9632;51.018;4.284;2022-08-02T03:03:57;20.30;99.90
18998;DHT22;9632;51.018;4.284;2022-08-02T03:06:24;20.30;99.90
18998;DHT22;9632;51.018;4.284;2022-08-02T03:08:50;20.20;99.90
18998;DHT22;9632;51.018;4.284;2022-08-02T03:11:16;20.20;99.90
18998;DHT22;9632;51.018;4.284;2022-08-02T03:13:42;20.20;99.90
18998;DHT22;9632;51.018;4.284;2022-08-02T03:16:10;20.20;99.90
18998;DHT22;9632;51.018;4.284;2022-08-02T03:18:40;20.20;99.90
18998;DHT22;9632;51.018;4.284;2022-08-02T03:21:12;20.20;99.90
18998;DHT22;9632;51.018;4.284;2022-08-02T03:23:39;20.10;99.90
18998;DHT22;9632;51.018;4.284;2022-08-02T03:26:05;20.10;99.90
18998;DHT22;9632;51.018;4.284;2022-08-02T03:28:31;20.10;99.90
18998;DHT22;9632;51.018;4.284;2022-08-02T03:30:57;20.00;99.90
18998;DHT22;9632;51.018;4.284;2022-08-02T03:33:23;20.00;99.90
18998;DHT22;9632;51.018;4.284;2022-08-02T03:35:51;20.00;99.90
18998;DHT22;9632;51.018;4.284;2022-08-02T03:38:19;20.00;99.90
18998;DHT22;9632;51.018;4.284;2022-08-02T03:40:46;20.00;99.90
18998;DHT22;9632;51.018;4.284;2022-08-02T03:43:12;20.00;99.90
18998;DHT22;9632;51.018;4.284;2022-08-02T03:45:42;20.00;99.90
18998;DHT22;9632;51.018;4.284;2022-08-02T03:48:10;20.00;99.90
18998;DHT22;9632;51.018;4.284;2022-08-02T03:50:36;20.00;99.90
18998;DHT22;9632;51.018;4.284;2022-08-02T03:53:03;20.00;99.90
18998;DHT22;9632;51.018;4.284;2022-08-02T03:55:29;20.00;99.90
18998;DHT22;9632;51.018;4.284;2022-08-02T03:57:54;20.00;99.90
18998;DHT22;9632;51.018;4.284;2022-08-02T04:00:22;20.00;99.90
18998;DHT22;9632;51.018;4.284;2022-08-02T04:02:48;19.90;99.90
18998;DHT22;9632;51.018;4.284;2022-08-02T04:05:15;20.00;99.90
18998;DHT22;9632;51.018;4.284;2022-08-02T04:07:41;20.00;99.90
18998;DHT22;9632;51.018;4.284;2022-08-02T04:10:08;20.00;99.90
18998;DHT22;9632;51.018;4.284;2022-08-02T04:12:35;20.00;99.90
18998;DHT22;9632;51.018;4.284;2022-08-02T04:15:02;20.00;99.90
18998;DHT22;9632;51.018;4.284;2022-08-02T04:17:31;20.10;99.90
18998;DHT22;9632;51.018;4.284;2022-08-02T04:20:33;20.00;99.90
18998;DHT22;9632;51.018;4.284;2022-08-02T04:23:03;20.00;99.90
18998;DHT22;9632;51.018;4.284;2022-08-02T04:25:31;20.00;99.90
18998;DHT22;9632;51.018;4.284;2022-08-02T04:27:59;20.00;99.90
18998;DHT22;9632;51.018;4.284;2022-08-02T04:30:25;20.10;99.90
18998;DHT22;9632;51.018;4.284;2022-08-02T04:32:51;20.10;99.90
18998;DHT22;9632;51.018;4.284;2022-08-02T04:35:17;20.10;99.90
18998;DHT22;9632;51.018;4.284;2022-08-02T04:37:43;20.10;99.90
18998;DHT22;9632;51.018;4.284;2022-08-02T04:40:10;20.20;99.90
18998;DHT22;9632;51.018;4.284;2022-08-02T04:42:36;20.20;99.90
18998;DHT22;9632;51.018;4.284;2022-08-02T04:45:03;20.20;99.90
18998;DHT22;9632;51.018;4.284;2022-08-02T04:47:29;20.20;99.90
18998;DHT22;9632;51.018;4.284;2022-08-02T04:49:55;20.20;99.90
18998;DHT22;9632;51.018;4.284;2022-08-02T04:52:21;20.30;99.90
18998;DHT22;9632;51.018;4.284;2022-08-02T04:54:46;20.40;99.90
18998;DHT22;9632;51.018;4.284;2022-08-02T04:57:12;20.40;99.90
18998;DHT22;9632;51.018;4.284;2022-08-02T04:59:56;20.60;99.90
18998;DHT22;9632;51.018;4.284;2022-08-02T05:02:22;20.80;99.90
18998;DHT22;9632;51.018;4.284;2022-08-02T05:04:47;20.90;99.90
18998;DHT22;9632;51.018;4.284;2022-08-02T05:07:13;21.10;99.90
18998;DHT22;9632;51.018;4.284;2022-08-02T05:09:39;21.30;99.90
18998;DHT22;9632;51.018;4.284;2022-08-02T05:12:05;21.50;99.90
18998;DHT22;9632;51.018;4.284;2022-08-02T05:14:31;21.70;99.90
18998;DHT22;9632;51.018;4.284;2022-08-02T05:16:56;21.80;99.90
18998;DHT22;9632;51.018;4.284;2022-08-02T05:19:22;21.90;99.90
18998;DHT22;9632;51.018;4.284;2022-08-02T05:21:48;22.00;99.90
18998;DHT22;9632;51.018;4.284;2022-08-02T05:24:13;22.00;99.90
18998;DHT22;9632;51.018;4.284;2022-08-02T05:26:39;22.20;99.90
18998;DHT22;9632;51.018;4.284;2022-08-02T05:29:04;22.30;99.90
18998;DHT22;9632;51.018;4.284;2022-08-02T05:31:30;22.40;99.90
18998;DHT22;9632;51.018;4.284;2022-08-02T05:33:56;22.40;99.90
18998;DHT22;9632;51.018;4.284;2022-08-02T05:36:21;22.40;99.90
18998;DHT22;9632;51.018;4.284;2022-08-02T05:38:47;22.40;99.90
18998;DHT22;9632;51.018;4.284;2022-08-02T05:41:18;22.40;99.90
18998;DHT22;9632;51.018;4.284;2022-08-02T05:43:45;22.40;99.90
18998;DHT22;9632;51.018;4.284;2022-08-02T05:46:10;22.40;99.90
18998;DHT22;9632;51.018;4.284;2022-08-02T05:48:36;22.40;99.90
18998;DHT22;9632;51.018;4.284;2022-08-02T05:51:04;22.50;99.90
18998;DHT22;9632;51.018;4.284;2022-08-02T05:53:44;22.60;99.90
18998;DHT22;9632;51.018;4.284;2022-08-02T05:58:52;22.90;99.90
18998;DHT22;9632;51.018;4.284;2022-08-02T06:01:42;23.20;99.90
18998;DHT22;9632;51.018;4.284;2022-08-02T06:05:02;23.50;99.90
18998;DHT22;9632;51.018;4.284;2022-08-02T06:07:05;23.60;99.90
18998;DHT22;9632;51.018;4.284;2022-08-02T06:09:34;23.90;99.90
18998;DHT22;9632;51.018;4.284;2022-08-02T06:12:01;24.10;99.90
18998;DHT22;9632;51.018;4.284;2022-08-02T06:14:27;24.20;99.90
18998;DHT22;9632;51.018;4.284;2022-08-02T06:16:55;24.30;99.90
18998;DHT22;9632;51.018;4.284;2022-08-02T06:19:21;24.40;99.90
18998;DHT22;9632;51.018;4.284;2022-08-02T06:21:48;24.50;99.90
18998;DHT22;9632;51.018;4.284;2022-08-02T06:24:17;24.50;99.90
18998;DHT22;9632;51.018;4.284;2022-08-02T06:26:44;24.80;99.90
18998;DHT22;9632;51.018;4.284;2022-08-02T06:29:11;24.80;99.90
18998;DHT22;9632;51.018;4.284;2022-08-02T06:31:40;24.90;99.90
18998;DHT22;9632;51.018;4.284;2022-08-02T06:34:06;25.10;99.90
18998;DHT22;9632;51.018;4.284;2022-08-02T06:36:49;25.20;99.90
18998;DHT22;9632;51.018;4.284;2022-08-02T06:39:24;25.20;99.90
18998;DHT22;9632;51.018;4.284;2022-08-02T06:41:56;25.30;99.90
18998;DHT22;9632;51.018;4.284;2022-08-02T06:44:23;25.50;99.90
18998;DHT22;9632;51.018;4.284;2022-08-02T06:46:49;25.70;99.90
18998;DHT22;9632;51.018;4.284;2022-08-02T06:49:15;25.80;99.90
18998;DHT22;9632;51.018;4.284;2022-08-02T06:51:40;25.80;99.90
18998;DHT22;9632;51.018;4.284;2022-08-02T06:54:06;25.80;99.90
18998;DHT22;9632;51.018;4.284;2022-08-02T06:56:32;25.90;99.90
18998;DHT22;9632;51.018;4.284;2022-08-02T06:58:58;25.90;99.90
18998;DHT22;9632;51.018;4.284;2022-08-02T07:01:23;25.90;99.90
18998;DHT22;9632;51.018;4.284;2022-08-02T07:03:49;25.90;99.90
18998;DHT22;9632;51.018;4.284;2022-08-02T07:06:15;26.00;99.90
18998;DHT22;9632;51.018;4.284;2022-08-02T07:08:40;26.10;99.90
18998;DHT22;9632;51.018;4.284;2022-08-02T07:11:07;26.30;99.90
18998;DHT22;9632;51.018;4.284;2022-08-02T07:13:33;26.20;99.90
18998;DHT22;9632;51.018;4.284;2022-08-02T07:15:59;26.30;99.90
18998;DHT22;9632;51.018;4.284;2022-08-02T07:18:25;26.30;99.90
18998;DHT22;9632;51.018;4.284;2022-08-02T07:20:51;26.30;99.90
18998;DHT22;9632;51.018;4.284;2022-08-02T07:23:17;26.30;99.90
18998;DHT22;9632;51.018;4.284;2022-08-02T07:25:44;26.10;99.90
18998;DHT22;9632;51.018;4.284;2022-08-02T07:28:10;26.10;99.90
18998;DHT22;9632;51.018;4.284;2022-08-02T07:30:36;26.20;99.90
18998;DHT22;9632;51.018;4.284;2022-08-02T07:33:02;26.40;99.90
18998;DHT22;9632;51.018;4.284;2022-08-02T07:35:28;26.50;99.90
18998;DHT22;9632;51.018;4.284;2022-08-02T07:37:54;26.40;99.90
18998;DHT22;9632;51.018;4.284;2022-08-02T07:40:20;26.60;99.90
18998;DHT22;9632;51.018;4.284;2022-08-02T07:42:48;26.90;99.90
18998;DHT22;9632;51.018;4.284;2022-08-02T07:45:14;26.90;99.90
18998;DHT22;9632;51.018;4.284;2022-08-02T07:47:41;26.80;99.90
18998;DHT22;9632;51.018;4.284;2022-08-02T07:50:08;26.80;99.90
18998;DHT22;9632;51.018;4.284;2022-08-02T07:52:34;26.80;99.90
18998;DHT22;9632;51.018;4.284;2022-08-02T07:55:00;26.80;99.90
18998;DHT22;9632;51.018;4.284;2022-08-02T07:57:26;27.00;99.90
18998;DHT22;9632;51.018;4.284;2022-08-02T07:59:51;27.20;99.90
18998;DHT22;9632;51.018;4.284;2022-08-02T08:02:17;27.20;99.90
18998;DHT22;9632;51.018;4.284;2022-08-02T08:04:43;27.20;99.90
18998;DHT22;9632;51.018;4.284;2022-08-02T08:07:09;27.30;99.90
18998;DHT22;9632;51.018;4.284;2022-08-02T08:09:37;27.10;99.90
18998;DHT22;9632;51.018;4.284;2022-08-02T08:12:10;27.10;99.90
18998;DHT22;9632;51.018;4.284;2022-08-02T08:14:36;27.00;99.90
18998;DHT22;9632;51.018;4.284;2022-08-02T08:17:03;26.90;99.90
18998;DHT22;9632;51.018;4.284;2022-08-02T08:19:29;26.90;99.90
18998;DHT22;9632;51.018;4.284;2022-08-02T08:21:54;27.00;99.90
18998;DHT22;9632;51.018;4.284;2022-08-02T08:24:20;27.10;99.90
18998;DHT22;9632;51.018;4.284;2022-08-02T08:26:46;27.10;99.90
18998;DHT22;9632;51.018;4.284;2022-08-02T08:29:11;27.20;99.90
18998;DHT22;9632;51.018;4.284;2022-08-02T08:31:37;27.30;99.90
18998;DHT22;9632;51.018;4.284;2022-08-02T08:34:03;27.20;99.90
18998;DHT22;9632;51.018;4.284;2022-08-02T08:36:29;27.10;99.90
18998;DHT22;9632;51.018;4.284;2022-08-02T08:38:55;27.30;99.90
18998;DHT22;9632;51.018;4.284;2022-08-02T08:41:21;27.40;99.90
18998;DHT22;9632;51.018;4.284;2022-08-02T08:43:47;27.40;99.90
18998;DHT22;9632;51.018;4.284;2022-08-02T08:46:32;27.40;99.90
18998;DHT22;9632;51.018;4.284;2022-08-02T08:49:28;27.60;99.90
18998;DHT22;9632;51.018;4.284;2022-08-02T08:51:55;27.70;99.90
18998;DHT22;9632;51.018;4.284;2022-08-02T08:54:27;27.80;99.90
18998;DHT22;9632;51.018;4.284;2022-08-02T08:56:54;27.70;99.90
18998;DHT22;9632;51.018;4.284;2022-08-02T08:59:21;27.80;99.90
18998;DHT22;9632;51.018;4.284;2022-08-02T09:01:49;27.80;99.90
18998;DHT22;9632;51.018;4.284;2022-08-02T09:04:14;27.80;99.90
18998;DHT22;9632;51.018;4.284;2022-08-02T09:06:40;27.90;99.90
18998;DHT22;9632;51.018;4.284;2022-08-02T09:09:06;28.00;99.90
18998;DHT22;9632;51.018;4.284;2022-08-02T09:11:32;27.90;99.90
18998;DHT22;9632;51.018;4.284;2022-08-02T09:13:59;27.90;99.90
18998;DHT22;9632;51.018;4.284;2022-08-02T09:16:31;28.00;99.90
18998;DHT22;9632;51.018;4.284;2022-08-02T09:18:57;28.00;99.90
18998;DHT22;9632;51.018;4.284;2022-08-02T09:21:33;28.20;99.90
18998;DHT22;9632;51.018;4.284;2022-08-02T09:23:59;28.30;99.90
18998;DHT22;9632;51.018;4.284;2022-08-02T09:26:24;28.30;99.90
18998;DHT22;9632;51.018;4.284;2022-08-02T09:28:59;28.20;99.90
18998;DHT22;9632;51.018;4.284;2022-08-02T09:31:25;28.20;99.90
18998;DHT22;9632;51.018;4.284;2022-08-02T09:33:56;28.30;99.90
18998;DHT22;9632;51.018;4.284;2022-08-02T09:36:23;28.30;99.90
18998;DHT22;9632;51.018;4.284;2022-08-02T09:38:57;28.30;99.90
18998;DHT22;9632;51.018;4.284;2022-08-02T09:41:28;28.20;99.90
18998;DHT22;9632;51.018;4.284;2022-08-02T09:43:55;28.40;99.90
18998;DHT22;9632;51.018;4.284;2022-08-02T09:46:27;28.50;99.90
18998;DHT22;9632;51.018;4.284;2022-08-02T09:49:00;28.60;99.90
18998;DHT22;9632;51.018;4.284;2022-08-02T09:51:28;28.60;99.90
18998;DHT22;9632;51.018;4.284;2022-08-02T09:53:58;28.70;99.90
18998;DHT22;9632;51.018;4.284;2022-08-02T09:56:26;28.80;99.90
18998;DHT22;9632;51.018;4.284;2022-08-02T09:58:52;28.70;99.90
18998;DHT22;9632;51.018;4.284;2022-08-02T10:01:40;28.60;99.90
18998;DHT22;9632;51.018;4.284;2022-08-02T10:04:08;28.70;99.90
18998;DHT22;9632;51.018;4.284;2022-08-02T10:06:39;28.80;99.90
18998;DHT22;9632;51.018;4.284;2022-08-02T10:09:06;28.90;99.90
18998;DHT22;9632;51.018;4.284;2022-08-02T10:11:33;29.00;99.90
18998;DHT22;9632;51.018;4.284;2022-08-02T10:14:01;29.00;99.90
18998;DHT22;9632;51.018;4.284;2022-08-02T10:16:27;29.10;99.90
18998;DHT22;9632;51.018;4.284;2022-08-02T10:18:54;29.10;99.90
18998;DHT22;9632;51.018;4.284;2022-08-02T10:21:28;29.10;99.90
18998;DHT22;9632;51.018;4.284;2022-08-02T10:26:32;29.30;99.90
18998;DHT22;9632;51.018;4.284;2022-08-02T10:28:58;29.20;99.90
18998;DHT22;9632;51.018;4.284;2022-08-02T10:31:27;29.00;98.30
18998;DHT22;9632;51.018;4.284;2022-08-02T10:33:57;28.90;98.70
18998;DHT22;9632;51.018;4.284;2022-08-02T10:36:25;28.90;98.90
18998;DHT22;9632;51.018;4.284;2022-08-02T10:38:54;29.00;99.90
18998;DHT22;9632;51.018;4.284;2022-08-02T10:41:39;29.10;99.90
18998;DHT22;9632;51.018;4.284;2022-08-02T10:44:04;29.10;99.90
18998;DHT22;9632;51.018;4.284;2022-08-02T10:46:32;29.20;99.90
18998;DHT22;9632;51.018;4.284;2022-08-02T10:54:28;29.10;98.50
18998;DHT22;9632;51.018;4.284;2022-08-02T10:56:57;29.20;99.20
18998;DHT22;9632;51.018;4.284;2022-08-02T10:59:36;29.00;97.10
18998;DHT22;9632;51.018;4.284;2022-08-02T11:02:03;29.00;97.70
18998;DHT22;9632;51.018;4.284;2022-08-02T11:07:13;29.10;98.00
18998;DHT22;9632;51.018;4.284;2022-08-02T11:09:41;29.00;98.20
18998;DHT22;9632;51.018;4.284;2022-08-02T11:12:08;29.10;98.20
18998;DHT22;9632;51.018;4.284;2022-08-02T11:14:40;29.30;98.30
18998;DHT22;9632;51.018;4.284;2022-08-02T11:17:08;29.30;96.70
18998;DHT22;9632;51.018;4.284;2022-08-02T11:19:34;29.10;97.30
18998;DHT22;9632;51.018;4.284;2022-08-02T11:22:19;29.10;97.40
18998;DHT22;9632;51.018;4.284;2022-08-02T11:24:45;29.10;96.90
18998;DHT22;9632;51.018;4.284;2022-08-02T11:27:19;29.20;97.30
18998;DHT22;9632;51.018;4.284;2022-08-02T11:29:45;29.40;96.90
18998;DHT22;9632;51.018;4.284;2022-08-02T11:32:19;29.40;97.60
18998;DHT22;9632;51.018;4.284;2022-08-02T11:34:47;29.50;97.90
18998;DHT22;9632;51.018;4.284;2022-08-02T11:37:27;29.70;98.20
18998;DHT22;9632;51.018;4.284;2022-08-02T11:39:52;29.70;97.80
18998;DHT22;9632;51.018;4.284;2022-08-02T11:42:18;29.80;98.50
18998;DHT22;9632;51.018;4.284;2022-08-02T11:44:44;29.90;96.70
18998;DHT22;9632;51.018;4.284;2022-08-02T11:47:11;30.00;96.90
18998;DHT22;9632;51.018;4.284;2022-08-02T11:49:38;30.10;97.30
18998;DHT22;9632;51.018;4.284;2022-08-02T11:52:06;30.30;97.20
18998;DHT22;9632;51.018;4.284;2022-08-02T11:54:37;30.40;96.50
18998;DHT22;9632;51.018;4.284;2022-08-02T11:59:41;30.40;96.70
18998;DHT22;9632;51.018;4.284;2022-08-02T12:02:08;30.40;96.40
18998;DHT22;9632;51.018;4.284;2022-08-02T12:04:35;30.40;97.00
18998;DHT22;9632;51.018;4.284;2022-08-02T12:07:02;30.40;96.40
18998;DHT22;9632;51.018;4.284;2022-08-02T12:09:29;30.40;96.50
18998;DHT22;9632;51.018;4.284;2022-08-02T12:11:56;30.40;96.00
18998;DHT22;9632;51.018;4.284;2022-08-02T12:14:23;30.40;96.70
18998;DHT22;9632;51.018;4.284;2022-08-02T12:16:49;30.30;96.60
18998;DHT22;9632;51.018;4.284;2022-08-02T12:19:35;30.30;96.60
18998;DHT22;9632;51.018;4.284;2022-08-02T12:24:46;30.20;97.00
18998;DHT22;9632;51.018;4.284;2022-08-02T12:27:32;30.00;96.90
18998;DHT22;9632;51.018;4.284;2022-08-02T12:30:00;30.10;97.60
18998;DHT22;9632;51.018;4.284;2022-08-02T12:32:27;30.10;97.40
18998;DHT22;9632;51.018;4.284;2022-08-02T12:37:39;30.00;97.30
18998;DHT22;9632;51.018;4.284;2022-08-02T12:42:53;30.10;97.30
18998;DHT22;9632;51.018;4.284;2022-08-02T12:45:19;30.20;97.60
18998;DHT22;9632;51.018;4.284;2022-08-02T12:47:47;30.10;97.00
18998;DHT22;9632;51.018;4.284;2022-08-02T12:50:29;30.10;97.60
18998;DHT22;9632;51.018;4.284;2022-08-02T12:53:10;30.10;97.70
18998;DHT22;9632;51.018;4.284;2022-08-02T12:55:53;30.20;98.10
18998;DHT22;9632;51.018;4.284;2022-08-02T12:58:20;30.30;97.80
18998;DHT22;9632;51.018;4.284;2022-08-02T13:00:55;30.30;98.00
18998;DHT22;9632;51.018;4.284;2022-08-02T13:03:21;30.40;98.40
18998;DHT22;9632;51.018;4.284;2022-08-02T13:05:48;30.40;97.90
18998;DHT22;9632;51.018;4.284;2022-08-02T13:08:14;30.40;98.40
18998;DHT22;9632;51.018;4.284;2022-08-02T13:10:40;30.50;98.20
18998;DHT22;9632;51.018;4.284;2022-08-02T13:13:05;30.50;97.90
18998;DHT22;9632;51.018;4.284;2022-08-02T13:15:31;30.50;97.50
18998;DHT22;9632;51.018;4.284;2022-08-02T13:17:57;30.40;97.30
18998;DHT22;9632;51.018;4.284;2022-08-02T13:20:24;30.40;97.60
18998;DHT22;9632;51.018;4.284;2022-08-02T13:22:52;30.30;97.70
18998;DHT22;9632;51.018;4.284;2022-08-02T13:25:17;30.40;97.50
18998;DHT22;9632;51.018;4.284;2022-08-02T13:27:47;30.40;97.70
18998;DHT22;9632;51.018;4.284;2022-08-02T13:30:13;30.40;97.70
18998;DHT22;9632;51.018;4.284;2022-08-02T13:32:39;30.30;97.30
18998;DHT22;9632;51.018;4.284;2022-08-02T13:35:05;30.30;97.20
18998;DHT22;9632;51.018;4.284;2022-08-02T13:37:30;30.20;97.70
18998;DHT22;9632;51.018;4.284;2022-08-02T13:39:56;30.30;98.30
18998;DHT22;9632;51.018;4.284;2022-08-02T13:42:22;30.40;98.90
18998;DHT22;9632;51.018;4.284;2022-08-02T13:44:47;30.40;97.90
18998;DHT22;9632;51.018;4.284;2022-08-02T13:47:13;30.40;97.70
18998;DHT22;9632;51.018;4.284;2022-08-02T13:49:39;30.40;97.80
18998;DHT22;9632;51.018;4.284;2022-08-02T13:52:06;30.40;98.30
18998;DHT22;9632;51.018;4.284;2022-08-02T13:54:31;30.40;98.80
18998;DHT22;9632;51.018;4.284;2022-08-02T13:56:57;30.40;98.60
18998;DHT22;9632;51.018;4.284;2022-08-02T13:59:23;30.40;97.90
18998;DHT22;9632;51.018;4.284;2022-08-02T14:01:49;30.30;98.10
18998;DHT22;9632;51.018;4.284;2022-08-02T14:04:14;30.20;98.20
18998;DHT22;9632;51.018;4.284;2022-08-02T14:06:40;30.20;98.20
18998;DHT22;9632;51.018;4.284;2022-08-02T14:09:05;30.30;98.20
18998;DHT22;9632;51.018;4.284;2022-08-02T14:11:31;30.40;98.30
18998;DHT22;9632;51.018;4.284;2022-08-02T14:13:57;30.30;97.60
18998;DHT22;9632;51.018;4.284;2022-08-02T14:16:22;30.30;98.40
18998;DHT22;9632;51.018;4.284;2022-08-02T14:18:48;30.30;98.50
18998;DHT22;9632;51.018;4.284;2022-08-02T14:21:13;30.40;98.00
18998;DHT22;9632;51.018;4.284;2022-08-02T14:23:39;30.40;97.90
18998;DHT22;9632;51.018;4.284;2022-08-02T14:26:05;30.40;97.70
18998;DHT22;9632;51.018;4.284;2022-08-02T14:28:34;30.40;98.20
18998;DHT22;9632;51.018;4.284;2022-08-02T14:31:00;30.50;98.60
18998;DHT22;9632;51.018;4.284;2022-08-02T14:33:25;30.50;98.10
18998;DHT22;9632;51.018;4.284;2022-08-02T14:35:51;30.50;98.10
18998;DHT22;9632;51.018;4.284;2022-08-02T14:38:17;30.50;98.00
18998;DHT22;9632;51.018;4.284;2022-08-02T14:40:44;30.50;98.70
18998;DHT22;9632;51.018;4.284;2022-08-02T14:43:10;30.50;99.30
18998;DHT22;9632;51.018;4.284;2022-08-02T14:45:56;30.50;99.50
18998;DHT22;9632;51.018;4.284;2022-08-02T14:48:22;30.60;99.80
18998;DHT22;9632;51.018;4.284;2022-08-02T14:50:47;30.60;99.00
18998;DHT22;9632;51.018;4.284;2022-08-02T14:53:13;30.70;98.20
18998;DHT22;9632;51.018;4.284;2022-08-02T14:55:40;30.70;98.50
18998;DHT22;9632;51.018;4.284;2022-08-02T14:58:06;30.70;98.90
18998;DHT22;9632;51.018;4.284;2022-08-02T15:00:31;30.70;98.30
18998;DHT22;9632;51.018;4.284;2022-08-02T15:02:57;30.60;98.60
18998;DHT22;9632;51.018;4.284;2022-08-02T15:05:23;30.70;98.80
18998;DHT22;9632;51.018;4.284;2022-08-02T15:07:48;30.60;98.60
18998;DHT22;9632;51.018;4.284;2022-08-02T15:10:14;30.60;98.60
18998;DHT22;9632;51.018;4.284;2022-08-02T15:12:39;30.50;98.70
18998;DHT22;9632;51.018;4.284;2022-08-02T15:15:05;30.50;98.80
18998;DHT22;9632;51.018;4.284;2022-08-02T15:17:31;30.40;99.20
18998;DHT22;9632;51.018;4.284;2022-08-02T15:19:57;30.40;99.30
18998;DHT22;9632;51.018;4.284;2022-08-02T15:22:22;30.50;99.30
18998;DHT22;9632;51.018;4.284;2022-08-02T15:24:49;30.50;99.60
18998;DHT22;9632;51.018;4.284;2022-08-02T15:27:15;30.50;99.80
18998;DHT22;9632;51.018;4.284;2022-08-02T15:29:42;30.60;99.40
18998;DHT22;9632;51.018;4.284;2022-08-02T15:32:09;30.50;98.80
18998;DHT22;9632;51.018;4.284;2022-08-02T15:34:35;30.50;99.40
18998;DHT22;9632;51.018;4.284;2022-08-02T15:37:01;30.50;99.80
18998;DHT22;9632;51.018;4.284;2022-08-02T15:39:26;30.50;99.90
18998;DHT22;9632;51.018;4.284;2022-08-02T15:41:52;30.30;99.50
18998;DHT22;9632;51.018;4.284;2022-08-02T15:44:17;30.30;99.90
18998;DHT22;9632;51.018;4.284;2022-08-02T15:46:43;30.30;99.90
18998;DHT22;9632;51.018;4.284;2022-08-02T15:49:09;30.40;99.90
18998;DHT22;9632;51.018;4.284;2022-08-02T15:51:35;30.40;99.90
18998;DHT22;9632;51.018;4.284;2022-08-02T15:54:00;30.30;99.90
18998;DHT22;9632;51.018;4.284;2022-08-02T15:56:26;30.40;99.80
18998;DHT22;9632;51.018;4.284;2022-08-02T15:58:52;30.30;99.80
18998;DHT22;9632;51.018;4.284;2022-08-02T16:01:17;30.40;99.60
18998;DHT22;9632;51.018;4.284;2022-08-02T16:03:43;30.40;99.20
18998;DHT22;9632;51.018;4.284;2022-08-02T16:06:09;30.30;99.00
18998;DHT22;9632;51.018;4.284;2022-08-02T16:08:35;30.30;99.60
18998;DHT22;9632;51.018;4.284;2022-08-02T16:11:00;30.30;99.70
18998;DHT22;9632;51.018;4.284;2022-08-02T16:13:26;30.20;99.50
18998;DHT22;9632;51.018;4.284;2022-08-02T16:16:10;30.30;99.90
18998;DHT22;9632;51.018;4.284;2022-08-02T16:18:36;30.30;99.90
18998;DHT22;9632;51.018;4.284;2022-08-02T16:21:01;30.30;99.90
18998;DHT22;9632;51.018;4.284;2022-08-02T16:23:27;30.30;99.80
18998;DHT22;9632;51.018;4.284;2022-08-02T16:25:52;30.30;99.80